Time;durP1;ratioP1;P1;durP2;ratioP2;P2;SDS_P1;SDS_P2;PMS_P1;PMS_P2;Temp;Humidity;BMP_temperature;BMP_pressure;BME280_temperature;BME280_humidity;BME280_pressure;Samples;Min_cycle;Max_cycle;Signal;HPM_P1;HPM_P2
2021/12/22 00:01:50;;;;;;;24.13;15.13;;;;;;;-4.25;87.98;102880.75;5030601;28;20182;-72
2021/12/22 00:04:15;;;;;;;26.93;16.30;;;;;;;-4.27;88.09;102882.19;5030557;28;20193;-73
2021/12/22 00:06:41;;;;;;;23.17;14.87;;;;;;;-4.25;88.25;102884.84;5030574;28;20429;-73
2021/12/22 00:09:08;;;;;;;25.17;15.53;;;;;;;-4.22;87.53;102877.69;5030178;28;20174;-72
2021/12/22 00:11:33;;;;;;;25.00;15.73;;;;;;;-4.30;88.01;102880.94;5030557;28;20190;-73
2021/12/22 00:13:59;;;;;;;24.70;15.37;;;;;;;-4.34;87.63;102877.25;5030650;28;20487;-73
2021/12/22 00:16:24;;;;;;;22.57;14.00;;;;;;;-4.37;87.02;102888.50;5030376;28;20182;-73
2021/12/22 00:18:49;;;;;;;20.67;13.83;;;;;;;-4.46;86.44;102877.50;5030109;28;20279;-73
2021/12/22 00:21:15;;;;;;;19.70;12.80;;;;;;;-4.49;86.21;102882.16;5029933;28;20225;-72
2021/12/22 00:23:41;;;;;;;24.93;14.20;;;;;;;-4.53;85.72;102885.91;5045633;28;20284;-72
2021/12/22 00:26:06;;;;;;;21.00;13.03;;;;;;;-4.56;85.27;102878.06;5030207;28;20193;-73
2021/12/22 00:28:33;;;;;;;20.77;14.03;;;;;;;-4.56;85.56;102892.19;5030084;28;20194;-73
2021/12/22 00:31:08;;;;;;;19.70;13.33;;;;;;;-4.56;85.70;102894.69;5028767;28;20203;-72
2021/12/22 00:33:34;;;;;;;22.47;14.63;;;;;;;-4.57;86.47;102887.91;5029976;28;20418;-73
2021/12/22 00:35:59;;;;;;;19.33;13.83;;;;;;;-4.58;86.47;102894.53;5030004;28;20458;-73
2021/12/22 00:38:24;;;;;;;22.87;14.20;;;;;;;-4.59;85.64;102890.25;5029750;28;20271;-74
2021/12/22 00:40:50;;;;;;;19.83;13.57;;;;;;;-4.61;85.81;102890.81;5028750;28;20214;-73
2021/12/22 00:43:17;;;;;;;21.57;14.40;;;;;;;-4.58;86.49;102892.03;5029905;28;20202;-72
2021/12/22 00:45:42;;;;;;;19.80;13.07;;;;;;;-4.56;86.35;102884.69;5028545;28;20194;-73
2021/12/22 00:48:10;;;;;;;21.13;13.47;;;;;;;-4.63;86.08;102878.13;5028336;28;20435;-72
2021/12/22 00:50:37;;;;;;;20.60;13.30;;;;;;;-4.57;86.93;102885.41;5029855;28;20771;-73
2021/12/22 00:53:03;;;;;;;22.37;14.00;;;;;;;-4.63;87.89;102885.63;5029667;28;20926;-73
2021/12/22 00:55:28;;;;;;;20.40;13.40;;;;;;;-4.64;87.86;102881.34;5029805;28;20441;-73
2021/12/22 00:57:54;;;;;;;22.50;15.13;;;;;;;-4.65;88.45;102877.06;5029499;28;20444;-72
2021/12/22 01:00:22;;;;;;;21.63;13.70;;;;;;;-4.59;88.35;102889.34;5028467;28;20216;-73
2021/12/22 01:02:48;;;;;;;22.13;15.13;;;;;;;-4.65;88.55;102883.69;5029682;28;20190;-73
2021/12/22 01:05:15;;;;;;;22.53;14.27;;;;;;;-4.68;88.14;102886.72;5029160;28;20445;-74
2021/12/22 01:07:42;;;;;;;21.37;13.27;;;;;;;-4.69;87.28;102884.06;5029789;28;20618;-71
2021/12/22 01:10:09;;;;;;;18.03;12.10;;;;;;;-4.77;86.67;102893.19;5029395;28;20457;-73
2021/12/22 01:12:35;;;;;;;18.73;12.77;;;;;;;-4.79;86.83;102896.22;5028348;28;20456;-73
2021/12/22 01:15:00;;;;;;;21.00;12.53;;;;;;;-4.79;86.62;102898.72;5028410;28;20498;-72
2021/12/22 01:17:26;;;;;;;18.90;12.73;;;;;;;-4.81;86.49;102903.53;5028235;28;20516;-73
2021/12/22 01:20:00;;;;;;;18.70;12.77;;;;;;;-4.79;86.75;102899.59;5027894;28;20264;-71
2021/12/22 01:22:37;;;;;;;21.37;14.30;;;;;;;-4.76;88.25;102899.94;5028374;28;20689;-73
2021/12/22 01:25:04;;;;;;;23.50;14.20;;;;;;;-4.77;88.35;102898.19;5028293;28;20425;-72
2021/12/22 01:27:37;;;;;;;20.80;13.27;;;;;;;-4.81;87.68;102902.66;5029491;28;20444;-71
2021/12/22 01:30:10;;;;;;;19.03;12.97;;;;;;;-4.81;87.87;102902.66;5029348;28;20459;-73
2021/12/22 01:32:36;;;;;;;22.90;13.57;;;;;;;-4.84;87.22;102907.31;5029518;28;20439;-73
2021/12/22 01:35:04;;;;;;;19.33;13.53;;;;;;;-4.85;87.54;102910.50;5029337;28;20424;-72
2021/12/22 01:37:30;;;;;;;19.77;13.17;;;;;;;-4.81;88.36;102906.03;5028135;28;20445;-72
2021/12/22 01:39:55;;;;;;;22.13;14.13;;;;;;;-4.81;88.64;102903.53;5031241;28;20483;-72
2021/12/22 01:42:20;;;;;;;19.57;13.03;;;;;;;-4.82;88.38;102904.28;5029553;28;20201;-72
2021/12/22 01:50:37;;;;;;;22.83;14.00;;;;;;;-4.83;89.28;102911.59;5029149;28;20506;-72
2021/12/22 01:53:29;;;;;;;22.50;14.93;;;;;;;-4.83;89.49;102911.59;5029230;28;20440;-72
2021/12/22 01:56:21;;;;;;;20.13;13.50;;;;;;;-4.85;89.06;102913.00;5027824;28;20494;-73
2021/12/22 01:58:49;;;;;;;23.47;13.57;;;;;;;-4.83;89.65;102909.97;5027678;28;20449;-72
2021/12/22 02:01:15;;;;;;;27.07;15.50;;;;;;;-4.85;89.28;102905.50;5027803;28;20576;-72
2021/12/22 02:03:43;;;;;;;23.87;14.63;;;;;;;-4.80;89.38;102909.41;5027807;28;20465;-72
2021/12/22 02:06:10;;;;;;;27.47;15.47;;;;;;;-4.75;90.29;102905.84;5044381;28;20494;-72
2021/12/22 02:08:36;;;;;;;25.17;14.80;;;;;;;-4.77;89.94;102904.78;5029025;28;20437;-72
2021/12/22 02:11:02;;;;;;;25.33;14.30;;;;;;;-4.78;89.67;102900.50;5029274;28;20452;-72
2021/12/22 02:13:33;;;;;;;28.07;15.77;;;;;;;-4.81;89.96;102896.06;5044830;28;20444;-73
2021/12/22 02:16:05;;;;;;;22.40;13.87;;;;;;;-4.82;89.74;102908.38;5029339;28;20536;-73
2021/12/22 02:18:33;;;;;;;25.60;15.33;;;;;;;-4.83;90.27;102901.59;5032667;28;20451;-71
2021/12/22 02:20:58;;;;;;;26.77;15.83;;;;;;;-4.81;89.55;102905.16;5032243;28;20476;-73
2021/12/22 02:23:23;;;;;;;25.40;15.07;;;;;;;-4.85;90.35;102903.00;5033137;28;20443;-72
2021/12/22 02:25:54;;;;;;;27.87;15.63;;;;;;;-4.85;89.51;102898.91;5031332;28;20190;-73
2021/12/22 02:28:25;;;;;;;24.13;14.70;;;;;;;-4.86;89.13;102899.66;5032298;28;20186;-71
2021/12/22 02:30:51;;;;;;;25.63;15.30;;;;;;;-4.86;89.36;102902.16;5032334;28;20466;-73
2021/12/22 02:33:25;;;;;;;25.27;15.73;;;;;;;-4.83;89.22;102889.09;5032317;28;20957;-73
2021/12/22 02:38:21;;;;;;;23.70;14.73;;;;;;;-4.91;89.27;102895.75;5031752;28;20465;-70
2021/12/22 02:40:51;;;;;;;23.50;14.33;;;;;;;-4.93;88.98;102896.28;5031984;28;20531;-73
2021/12/22 02:43:21;;;;;;;27.40;14.23;;;;;;;-4.93;88.46;102897.16;5032000;28;20184;-71
2021/12/22 02:45:48;;;;;;;24.47;13.93;;;;;;;-4.97;88.12;102895.03;5030655;28;20796;-74
2021/12/22 02:48:13;;;;;;;25.90;14.63;;;;;;;-5.00;88.25;102899.69;5031513;28;20437;-73
2021/12/22 02:50:40;;;;;;;24.90;14.57;;;;;;;-4.94;89.37;102902.88;5031800;28;20472;-73
2021/12/22 02:53:10;;;;;;;25.90;15.07;;;;;;;-4.95;88.79;102910.19;5031668;28;20181;-71
2021/12/22 02:55:46;;;;;;;23.30;14.70;;;;;;;-4.98;88.36;102905.75;5031737;28;20452;-72
2021/12/22 02:58:32;;;;;;;22.67;13.87;;;;;;;-5.05;88.14;102912.38;5031367;28;20984;-71
2021/12/22 03:01:09;;;;;;;21.07;12.03;;;;;;;-5.11;86.92;102912.56;5030389;28;20461;-71
2021/12/22 03:03:57;;;;;;;22.57;12.57;;;;;;;-5.10;86.53;102903.47;5031705;28;20835;-71
2021/12/22 03:09:30;;;;;;;23.13;14.27;;;;;;;-5.07;87.23;102903.84;4989090;28;20458;-73
2021/12/22 03:11:58;;;;;;;20.63;12.87;;;;;;;-5.12;86.14;102899.94;5038828;28;20494;-73
2021/12/22 03:14:24;;;;;;;20.53;12.53;;;;;;;-5.12;86.81;102908.28;5031134;28;20481;-73
2021/12/22 03:16:51;;;;;;;21.70;13.23;;;;;;;-5.17;86.60;102898.47;5031067;28;20894;-73
2021/12/22 03:19:23;;;;;;;25.47;14.33;;;;;;;-5.18;86.66;102891.72;5030241;28;20465;-74
2021/12/22 03:21:51;;;;;;;27.67;14.83;;;;;;;-5.19;86.77;102893.34;5031280;28;20409;-71
2021/12/22 03:24:19;;;;;;;25.67;14.83;;;;;;;-5.19;86.59;102893.34;5029947;28;20471;-75
2021/12/22 03:26:45;;;;;;;25.27;14.47;;;;;;;-5.27;86.82;102893.16;5030918;28;20949;-72
2021/12/22 03:29:13;;;;;;;26.87;15.13;;;;;;;-5.26;86.60;102884.97;5030223;28;20444;-70
2021/12/22 03:31:39;;;;;;;28.80;15.80;;;;;;;-5.31;86.63;102889.44;5031396;28;20202;-71
2021/12/22 03:34:05;;;;;;;28.10;15.47;;;;;;;-5.30;86.68;102890.34;5030967;28;20448;-72
2021/12/22 03:36:31;;;;;;;22.00;13.77;;;;;;;-5.31;86.35;102893.53;5031058;28;20433;-71
2021/12/22 03:38:56;;;;;;;25.73;15.40;;;;;;;-5.34;86.81;102888.22;5030602;28;20976;-72
2021/12/22 03:41:22;;;;;;;30.50;16.13;;;;;;;-5.35;88.04;102891.44;5030298;28;20213;-72
2021/12/22 03:43:47;;;;;;;33.50;16.50;;;;;;;-5.33;87.56;102882.50;5030911;28;20262;-71
2021/12/22 03:46:12;;;;;;;33.57;17.07;;;;;;;-5.32;88.53;102877.69;5030765;28;20760;-73
2021/12/22 03:48:38;;;;;;;33.87;17.50;;;;;;;-5.32;88.52;102872.69;5030515;28;20201;-71
2021/12/22 03:51:03;;;;;;;30.90;16.47;;;;;;;-5.33;88.07;102878.41;5030555;28;20293;-73
2021/12/22 03:53:29;;;;;;;28.57;15.23;;;;;;;-5.30;88.41;102880.38;5030436;28;20197;-73
2021/12/22 03:55:54;;;;;;;31.77;16.80;;;;;;;-5.30;88.71;102890.34;5030200;28;20359;-71
2021/12/22 03:58:21;;;;;;;35.40;15.40;;;;;;;-5.30;88.70;102891.22;5030428;28;20182;-71
2021/12/22 04:00:46;;;;;;;37.17;17.97;;;;;;;-5.34;88.08;102886.59;5030553;28;20209;-71
2021/12/22 04:03:17;;;;;;;29.37;16.13;;;;;;;-5.34;88.49;102888.22;5030414;28;20528;-72
2021/12/22 04:05:45;;;;;;;29.43;14.53;;;;;;;-5.36;88.44;102887.13;5030586;28;20601;-72
2021/12/22 04:08:11;;;;;;;27.83;15.07;;;;;;;-5.40;87.25;102887.47;5028396;28;20447;-72
2021/12/22 04:10:37;;;;;;;29.67;15.70;;;;;;;-5.41;87.42;102893.19;5030105;28;20461;-73
2021/12/22 04:13:03;;;;;;;29.20;15.23;;;;;;;-5.39;88.62;102892.66;5030278;28;20937;-71
2021/12/22 04:15:29;;;;;;;27.80;14.77;;;;;;;-5.40;87.59;102889.97;5030189;28;20223;-72
2021/12/22 04:17:55;;;;;;;29.37;15.67;;;;;;;-5.41;87.64;102889.13;5030018;28;20190;-71
2021/12/22 04:20:21;;;;;;;29.87;15.47;;;;;;;-5.41;87.83;102886.63;5029913;28;20222;-73
2021/12/22 04:22:46;;;;;;;29.57;14.80;;;;;;;-5.38;87.62;102876.09;5028381;28;20460;-71
2021/12/22 04:25:19;;;;;;;30.67;15.03;;;;;;;-5.42;87.31;102877.38;5029799;28;20178;-72
2021/12/22 04:27:45;;;;;;;30.23;15.30;;;;;;;-5.43;87.51;102870.56;5028396;28;20645;-73
2021/12/22 04:30:10;;;;;;;30.23;14.90;;;;;;;-5.49;86.69;102871.47;5029767;28;20437;-71
2021/12/22 04:32:36;;;;;;;28.63;14.53;;;;;;;-5.58;86.63;102866.31;5030009;28;20186;-72
2021/12/22 04:35:01;;;;;;;32.50;16.23;;;;;;;-5.57;86.49;102879.69;5029925;28;20194;-72
2021/12/22 04:37:26;;;;;;;34.67;15.53;;;;;;;-5.58;86.60;102877.94;5029414;28;20193;-72
2021/12/22 04:39:52;;;;;;;28.13;14.70;;;;;;;-5.58;86.31;102873.81;5029937;28;20308;-72
2021/12/22 04:42:17;;;;;;;32.87;15.97;;;;;;;-5.56;87.40;102876.47;5028758;28;20565;-71
2021/12/22 04:44:42;;;;;;;35.70;17.27;;;;;;;-5.44;88.94;102875.41;5028951;28;20592;-72
2021/12/22 04:47:08;;;;;;;40.73;18.43;;;;;;;-5.36;89.57;102875.56;5029886;28;20639;-73
2021/12/22 04:49:33;;;;;;;43.00;18.97;;;;;;;-5.33;90.04;102880.00;5029361;28;20209;-71
2021/12/22 04:52:00;;;;;;;44.33;20.00;;;;;;;-5.31;90.47;102881.94;5028312;28;20201;-71
2021/12/22 04:56:55;;;;;;;49.57;21.03;;;;;;;-5.30;91.68;102878.75;5029688;28;21089;-71
2021/12/22 04:59:21;;;;;;;50.43;19.93;;;;;;;-5.22;91.43;102869.63;5029148;28;20467;-73
2021/12/22 05:01:47;;;;;;;43.50;19.33;;;;;;;-5.20;91.49;102874.06;5029715;28;21031;-72
2021/12/22 05:04:12;;;;;;;51.30;21.47;;;;;;;-5.12;91.67;102870.84;5029174;28;20472;-72
2021/12/22 05:06:38;;;;;;;49.73;20.60;;;;;;;-5.09;92.12;102873.69;5029671;28;20182;-71
2021/12/22 05:09:05;;;;;;;49.17;20.27;;;;;;;-5.14;92.38;102876.38;5029202;28;20217;-73
2021/12/22 05:11:31;;;;;;;49.93;20.23;;;;;;;-5.10;92.38;102868.53;5029625;28;20218;-72
2021/12/22 05:13:57;;;;;;;52.17;22.20;;;;;;;-5.01;92.94;102859.56;5029187;28;20429;-73
2021/12/22 05:16:22;;;;;;;52.93;19.70;;;;;;;-4.98;92.22;102870.78;5029820;28;20792;-71
2021/12/22 05:18:52;;;;;;;56.13;21.13;;;;;;;-4.99;92.77;102864.03;5028019;28;20577;-71
2021/12/22 05:21:21;;;;;;;50.93;19.83;;;;;;;-4.96;92.26;102863.47;5029438;28;20242;-73
2021/12/22 05:23:48;;;;;;;55.43;22.27;;;;;;;-4.94;92.55;102860.44;5028096;28;20436;-71
2021/12/22 05:26:14;;;;;;;53.73;22.17;;;;;;;-4.89;92.99;102864.34;5029869;28;20616;-71
2021/12/22 05:28:39;;;;;;;59.50;21.40;;;;;;;-4.88;92.43;102863.59;5028473;28;20433;-73
2021/12/22 05:31:05;;;;;;;55.80;22.20;;;;;;;-4.86;93.04;102863.78;5029293;28;20206;-72
2021/12/22 05:33:30;;;;;;;52.53;19.83;;;;;;;-4.86;92.84;102871.28;5028192;28;20194;-71
2021/12/22 05:35:56;;;;;;;60.10;22.07;;;;;;;-4.84;93.34;102865.72;5029245;28;20270;-72
2021/12/22 05:38:21;;;;;;;60.87;22.77;;;;;;;-4.83;92.90;102864.13;5029082;28;20212;-71
2021/12/22 05:40:46;;;;;;;55.93;21.30;;;;;;;-4.85;93.18;102866.47;5028850;28;20210;-71
2021/12/22 05:43:12;;;;;;;58.87;20.77;;;;;;;-4.86;93.09;102867.19;5029078;28;20191;-72
2021/12/22 05:45:37;;;;;;;48.77;18.80;;;;;;;-4.85;93.68;102868.06;5027770;28;20190;-70
2021/12/22 05:48:02;;;;;;;49.33;18.93;;;;;;;-4.86;93.30;102866.28;5029008;28;20259;-71
2021/12/22 05:50:28;;;;;;;48.47;18.83;;;;;;;-4.82;93.50;102858.41;5029143;28;20187;-72
2021/12/22 05:52:53;;;;;;;44.90;17.90;;;;;;;-4.79;92.99;102859.63;5030676;28;20201;-71
2021/12/22 05:55:18;;;;;;;55.70;21.30;;;;;;;-4.85;93.65;102853.97;5031428;28;20723;-73
2021/12/22 05:57:45;;;;;;;57.20;21.47;;;;;;;-4.80;93.95;102859.47;5033144;28;20618;-73
2021/12/22 06:00:11;;;;;;;59.97;21.93;;;;;;;-4.78;93.25;102858.91;5032501;28;20653;-73
2021/12/22 06:02:39;;;;;;;54.03;20.83;;;;;;;-4.73;93.63;102861.94;5032826;28;20468;-74
2021/12/22 06:05:06;;;;;;;59.27;21.03;;;;;;;-4.71;93.97;102865.47;5032576;28;20483;-74
2021/12/22 06:07:31;;;;;;;52.60;21.77;;;;;;;-4.66;93.08;102860.28;5031315;28;20224;-74
2021/12/22 06:09:56;;;;;;;54.73;21.93;;;;;;;-4.61;93.60;102864.19;5031626;28;21008;-74
2021/12/22 06:12:21;;;;;;;54.60;20.80;;;;;;;-4.68;93.15;102865.84;5032257;28;20195;-73
2021/12/22 06:14:47;;;;;;;56.73;21.20;;;;;;;-4.67;93.78;102868.50;5032609;28;20197;-74
2021/12/22 06:17:13;;;;;;;51.80;20.60;;;;;;;-4.63;93.73;102867.22;5031044;28;20201;-74
2021/12/22 06:19:39;;;;;;;52.13;19.33;;;;;;;-4.61;93.71;102863.31;5030817;28;20638;-73
2021/12/22 06:22:04;;;;;;;48.70;20.00;;;;;;;-4.60;93.29;102863.47;5032305;28;20472;-73
2021/12/22 06:24:29;;;;;;;54.13;21.50;;;;;;;-4.57;93.43;102865.41;5032394;28;20196;-73
2021/12/22 06:26:56;;;;;;;58.40;19.47;;;;;;;-4.70;93.35;102859.78;5032303;28;20579;-73
2021/12/22 06:29:22;;;;;;;54.73;20.80;;;;;;;-4.67;93.80;102855.13;5032131;28;20220;-72
2021/12/22 06:31:47;;;;;;;52.13;21.00;;;;;;;-4.60;94.39;102860.97;5014337;28;20843;-73
2021/12/22 06:34:12;;;;;;;53.50;21.30;;;;;;;-4.59;93.69;102859.38;5032174;28;20896;-72
2021/12/22 06:36:38;;;;;;;55.83;21.33;;;;;;;-4.59;94.29;102861.88;5031967;28;20656;-73
2021/12/22 06:39:04;;;;;;;53.77;21.40;;;;;;;-4.57;94.45;102865.41;5031750;28;20213;-71
2021/12/22 06:41:31;;;;;;;58.10;20.47;;;;;;;-4.58;94.53;102854.53;5031760;28;20206;-75
2021/12/22 06:43:56;;;;;;;69.33;22.80;;;;;;;-4.56;93.90;102849.72;5031932;28;20486;-72
2021/12/22 06:46:22;;;;;;;53.33;21.77;;;;;;;-4.51;94.11;102858.63;5031881;28;20436;-74
2021/12/22 06:48:47;;;;;;;53.47;19.63;;;;;;;-4.59;94.13;102862.78;5031656;28;20218;-74
2021/12/22 06:51:13;;;;;;;54.13;21.33;;;;;;;-4.51;94.48;102863.63;5031774;28;20202;-73
2021/12/22 06:53:38;;;;;;;60.73;21.93;;;;;;;-4.58;95.11;102854.53;5030479;28;20217;-74
2021/12/22 06:56:04;;;;;;;61.13;22.87;;;;;;;-4.55;94.99;102849.00;5031734;28;20760;-73
2021/12/22 06:58:29;;;;;;;60.37;21.73;;;;;;;-4.46;94.60;102852.50;5031435;28;20206;-72
2021/12/22 07:00:55;;;;;;;59.00;21.40;;;;;;;-4.42;94.96;102857.13;5031616;28;20439;-74
2021/12/22 07:03:21;;;;;;;58.27;22.10;;;;;;;-4.44;94.51;102854.47;5030466;28;20240;-75
2021/12/22 07:05:46;;;;;;;56.43;21.93;;;;;;;-4.40;94.97;102845.69;5030403;28;20185;-71
2021/12/22 07:08:11;;;;;;;56.53;20.60;;;;;;;-4.39;94.61;102842.44;5031403;28;20659;-73
2021/12/22 07:10:37;;;;;;;59.03;21.23;;;;;;;-4.41;94.37;102849.81;5031760;28;20205;-76
2021/12/22 07:13:04;;;;;;;57.67;20.00;;;;;;;-4.39;94.85;102840.84;5031729;28;20174;-72
2021/12/22 07:15:29;;;;;;;50.80;19.93;;;;;;;-4.33;94.44;102840.66;5031598;28;20197;-73
2021/12/22 07:17:55;;;;;;;51.73;19.30;;;;;;;-4.34;94.27;102841.34;5031418;28;20441;-73
2021/12/22 07:20:21;;;;;;;59.73;20.07;;;;;;;-4.37;94.53;102836.03;5031029;28;20265;-74
2021/12/22 07:22:47;;;;;;;51.33;19.67;;;;;;;-4.33;94.86;102844.00;5030165;28;20594;-73
2021/12/22 07:25:14;;;;;;;54.20;20.07;;;;;;;-4.29;94.43;102838.63;5031047;28;20175;-73
2021/12/22 07:27:40;;;;;;;51.80;19.27;;;;;;;-4.29;94.39;102842.72;5029964;28;20559;-74
2021/12/22 07:30:07;;;;;;;53.23;19.57;;;;;;;-4.27;94.97;102838.81;5046219;28;20457;-73
2021/12/22 07:32:32;;;;;;;52.03;18.63;;;;;;;-4.19;94.21;102845.53;5046357;28;20190;-74
2021/12/22 07:35:06;;;;;;;51.17;18.47;;;;;;;-4.21;94.61;102845.38;5030822;28;20555;-74
2021/12/22 07:37:40;;;;;;;49.23;18.77;;;;;;;-4.18;94.83;102844.81;5030949;28;20193;-73
2021/12/22 07:40:08;;;;;;;45.83;17.87;;;;;;;-4.17;94.58;102849.97;5030533;28;20503;-73
2021/12/22 07:42:34;;;;;;;52.73;18.30;;;;;;;-4.21;94.76;102842.88;5029586;28;20449;-72
2021/12/22 07:44:59;;;;;;;43.67;16.77;;;;;;;-4.22;94.28;102847.69;5030145;28;20480;-73
2021/12/22 07:47:25;;;;;;;47.27;17.93;;;;;;;-4.21;94.56;102850.38;5030804;28;20305;-73
2021/12/22 07:49:50;;;;;;;48.67;17.60;;;;;;;-4.12;95.00;102847.97;5029872;28;20203;-71
2021/12/22 07:52:16;;;;;;;57.37;19.60;;;;;;;-3.90;95.05;102845.47;5029327;28;20222;-68
2021/12/22 07:54:41;;;;;;;53.57;20.17;;;;;;;-3.68;94.68;102838.66;5029197;28;20197;-66
2021/12/22 07:57:06;;;;;;;53.33;19.57;;;;;;;-3.69;94.64;102844.41;5030567;28;20194;-72
2021/12/22 07:59:32;;;;;;;50.30;18.77;;;;;;;-3.80;94.99;102837.34;5029544;28;20258;-73
2021/12/22 08:01:58;;;;;;;48.03;18.13;;;;;;;-3.81;94.26;102836.47;5021987;28;20190;-73
2021/12/22 08:04:24;;;;;;;49.13;19.33;;;;;;;-3.81;94.43;102843.97;5029478;28;20671;-73
2021/12/22 08:06:50;;;;;;;47.97;18.33;;;;;;;-3.81;93.96;102845.56;5028431;28;20459;-74
2021/12/22 08:09:15;;;;;;;45.33;18.50;;;;;;;-3.76;93.67;102844.44;5029624;28;20658;-73
2021/12/22 08:11:40;;;;;;;45.07;17.77;;;;;;;-3.73;93.79;102839.78;5030124;28;20440;-72
2021/12/22 08:14:06;;;;;;;44.17;16.87;;;;;;;-3.68;93.42;102842.03;5030289;28;20217;-71
2021/12/22 08:16:31;;;;;;;44.80;18.83;;;;;;;-3.62;93.71;102841.81;5030463;28;20195;-75
2021/12/22 08:18:56;;;;;;;45.03;17.00;;;;;;;-3.61;93.78;102831.97;5026611;28;20202;-73
2021/12/22 08:21:22;;;;;;;40.57;17.17;;;;;;;-3.58;93.25;102831.41;5020645;28;20318;-73
2021/12/22 08:23:47;;;;;;;42.87;17.67;;;;;;;-3.62;93.37;102840.22;5029560;28;20190;-74
2021/12/22 08:26:13;;;;;;;44.03;17.93;;;;;;;-3.68;93.66;102841.16;5029662;28;20786;-73
2021/12/22 08:28:38;;;;;;;44.13;16.77;;;;;;;-3.78;93.68;102840.91;5027749;28;20198;-73
2021/12/22 08:31:04;;;;;;;44.17;18.57;;;;;;;-3.73;93.63;102833.16;5027844;28;20220;-73
2021/12/22 08:33:32;;;;;;;45.87;18.40;;;;;;;-3.64;94.45;102840.78;5029126;28;20589;-73
2021/12/22 08:38:58;;;;;;;47.63;18.77;;;;;;;-3.58;93.60;102837.28;5027365;28;20483;-73
2021/12/22 08:41:36;;;;;;;48.13;17.43;;;;;;;-3.61;94.11;102836.97;5029121;28;20548;-74
2021/12/22 08:44:05;;;;;;;43.20;16.63;;;;;;;-3.60;93.67;102833.75;5009782;28;20667;-73
2021/12/22 08:46:33;;;;;;;42.00;17.00;;;;;;;-3.55;93.68;102829.25;5010044;28;20978;-74
2021/12/22 08:48:59;;;;;;;38.40;16.30;;;;;;;-3.42;93.78;102829.78;5024346;28;20433;-71
2021/12/22 08:51:25;;;;;;;41.47;17.13;;;;;;;-3.42;93.58;102833.19;5029497;28;21003;-74
2021/12/22 08:53:52;;;;;;;43.80;16.33;;;;;;;-3.43;93.31;102823.91;5028284;28;20519;-73
2021/12/22 08:56:18;;;;;;;39.37;16.03;;;;;;;-3.40;93.28;102825.84;5029681;28;20655;-74
2021/12/22 08:58:43;;;;;;;37.73;15.47;;;;;;;-3.53;93.86;102830.28;5028825;28;20471;-73
2021/12/22 09:01:08;;;;;;;45.30;17.47;;;;;;;-3.46;93.51;102838.59;5026982;28;20321;-73
2021/12/22 09:03:34;;;;;;;35.13;15.43;;;;;;;-3.35;93.85;102839.75;5029505;28;20565;-74
2021/12/22 09:06:00;;;;;;;37.57;15.43;;;;;;;-3.32;93.11;102833.44;5029247;28;20209;-73
2021/12/22 09:08:25;;;;;;;36.33;15.60;;;;;;;-3.40;93.34;102840.88;5029298;28;20187;-73
2021/12/22 09:10:51;;;;;;;38.23;17.03;;;;;;;-3.43;93.94;102840.53;5029390;28;20224;-74
2021/12/22 09:13:19;;;;;;;41.63;17.07;;;;;;;-3.40;94.21;102845.88;5028258;28;20252;-73
2021/12/22 09:15:44;;;;;;;41.13;16.03;;;;;;;-3.40;93.51;102850.88;5021448;28;20221;-74
2021/12/22 09:18:10;;;;;;;42.73;16.80;;;;;;;-3.30;93.85;102833.59;5027438;28;20456;-74
2021/12/22 09:20:35;;;;;;;42.20;16.70;;;;;;;-3.26;93.43;102834.06;5043785;28;20260;-75
2021/12/22 09:23:00;;;;;;;40.27;15.70;;;;;;;-3.26;93.65;102835.72;5028050;28;20202;-74
2021/12/22 09:25:26;;;;;;;40.33;16.20;;;;;;;-3.17;93.46;102832.53;5029011;28;20186;-76
2021/12/22 09:27:51;;;;;;;33.93;15.17;;;;;;;-3.16;93.17;102838.44;5032080;28;20646;-74
2021/12/22 09:30:17;;;;;;;36.70;15.07;;;;;;;-3.22;93.64;102826.16;5031860;28;20207;-74
2021/12/22 09:32:42;;;;;;;34.73;14.50;;;;;;;-3.20;93.57;102828.81;5033068;28;20620;-75
2021/12/22 09:35:08;;;;;;;39.17;16.67;;;;;;;-3.15;93.63;102830.19;5033163;28;20256;-75
2021/12/22 09:37:34;;;;;;;34.13;15.87;;;;;;;-3.06;92.85;102836.16;5033249;28;20197;-73
2021/12/22 09:39:59;;;;;;;37.00;16.30;;;;;;;-3.08;93.40;102832.63;5032910;28;20225;-73
2021/12/22 09:42:24;;;;;;;46.90;23.23;;;;;;;-2.97;93.39;102830.50;5032932;28;20655;-75
2021/12/22 09:44:50;;;;;;;35.03;15.80;;;;;;;-3.04;93.63;102827.22;5031842;28;20630;-73
2021/12/22 09:47:25;;;;;;;34.77;15.70;;;;;;;-3.03;93.04;102837.38;5032681;28;20212;-74
2021/12/22 09:50:12;;;;;;;33.50;15.33;;;;;;;-3.06;93.36;102829.56;5031025;28;20589;-74
2021/12/22 09:52:38;;;;;;;35.30;15.37;;;;;;;-2.80;93.56;102824.75;5031677;28;20812;-75
2021/12/22 09:55:07;;;;;;;38.57;16.47;;;;;;;-2.89;93.33;102827.16;5033038;28;20420;-74
2021/12/22 09:57:33;;;;;;;37.90;15.80;;;;;;;-2.97;93.02;102818.00;5031315;28;20451;-73
2021/12/22 10:00:00;;;;;;;33.80;15.80;;;;;;;-2.71;93.75;102818.19;5031085;28;20992;-73
2021/12/22 10:02:29;;;;;;;31.50;14.53;;;;;;;-2.87;93.03;102820.72;5047536;28;20449;-74
2021/12/22 10:04:58;;;;;;;37.67;16.07;;;;;;;-2.76;93.11;102824.34;5032292;28;20447;-71
2021/12/22 10:07:27;;;;;;;33.50;15.50;;;;;;;-2.81;92.72;102818.84;5032392;28;20467;-73
2021/12/22 10:09:55;;;;;;;31.57;14.00;;;;;;;-2.76;92.41;102807.66;5030594;28;20930;-73
2021/12/22 10:12:24;;;;;;;30.37;13.53;;;;;;;-2.77;92.42;102815.03;5032370;28;20945;-73
2021/12/22 10:14:55;;;;;;;29.80;13.97;;;;;;;-2.86;92.74;102814.97;5032215;28;20507;-74
2021/12/22 10:17:43;;;;;;;32.23;15.27;;;;;;;-2.73;92.81;102814.59;5032230;28;20436;-73
2021/12/22 10:20:13;;;;;;;28.33;13.80;;;;;;;-2.75;92.57;102813.56;5047063;28;20484;-74
2021/12/22 10:22:43;;;;;;;32.17;14.27;;;;;;;-2.75;92.35;102806.06;5032204;28;20487;-73
2021/12/22 10:25:18;;;;;;;32.07;14.10;;;;;;;-2.74;92.12;102802.81;5014469;28;20429;-73
2021/12/22 10:27:56;;;;;;;38.00;17.23;;;;;;;-2.69;92.35;102807.59;5030610;28;20931;-74
2021/12/22 10:30:25;;;;;;;35.53;16.57;;;;;;;-2.66;92.86;102807.88;5032091;28;20789;-73
2021/12/22 10:33:22;;;;;;;30.87;14.47;;;;;;;-2.53;92.45;102810.03;5031902;28;20425;-74
2021/12/22 10:35:50;;;;;;;32.67;14.27;;;;;;;-2.56;92.49;102809.72;5030623;28;20566;-73
2021/12/22 10:38:19;;;;;;;32.03;14.60;;;;;;;-2.52;92.38;102806.78;5046833;28;20444;-73
2021/12/22 10:40:54;;;;;;;29.03;14.30;;;;;;;-2.56;92.16;102803.09;5031786;28;20464;-73
2021/12/22 10:43:28;;;;;;;31.20;14.23;;;;;;;-2.48;92.04;102809.75;5031792;28;20989;-72
2021/12/22 10:45:56;;;;;;;26.40;12.80;;;;;;;-2.39;91.88;102804.81;5030564;28;20432;-71
2021/12/22 10:51:11;;;;;;;26.23;13.97;;;;;;;-2.51;92.06;102801.94;5031728;28;20553;-71
2021/12/22 10:53:43;;;;;;;29.47;14.30;;;;;;;-2.39;92.49;102804.81;5030255;28;21003;-72
2021/12/22 10:56:08;;;;;;;25.63;12.70;;;;;;;-2.40;91.99;102806.41;5030426;28;20443;-72
2021/12/22 10:58:34;;;;;;;29.23;14.20;;;;;;;-2.41;91.58;102793.72;5030323;28;20524;-73
2021/12/22 11:01:11;;;;;;;26.80;13.50;;;;;;;-2.38;91.75;102792.44;5029948;28;20210;-73
2021/12/22 11:03:51;;;;;;;29.77;14.20;;;;;;;-2.33;91.76;102797.91;5031300;28;20232;-74
2021/12/22 11:06:19;;;;;;;29.30;14.47;;;;;;;-2.31;91.93;102794.81;5031405;28;20421;-73
2021/12/22 11:08:58;;;;;;;27.40;14.60;;;;;;;-2.30;91.52;102801.59;5046337;28;20452;-73
2021/12/22 11:11:29;;;;;;;28.57;14.77;;;;;;;-2.28;91.61;102797.63;5031330;28;20459;-73
2021/12/22 11:14:04;;;;;;;32.80;14.00;;;;;;;-2.35;91.32;102791.84;5029836;28;20953;-73
2021/12/22 11:16:30;;;;;;;34.93;15.77;;;;;;;-2.32;91.66;102793.03;5031118;28;20437;-74
2021/12/22 11:19:07;;;;;;;29.23;14.77;;;;;;;-2.33;91.97;102791.28;5030810;28;20967;-73
2021/12/22 11:21:35;;;;;;;29.93;14.10;;;;;;;-2.22;92.07;102784.81;5030110;28;20202;-73
2021/12/22 11:24:00;;;;;;;33.83;16.90;;;;;;;-2.18;91.74;102786.91;5031042;28;20845;-73
2021/12/22 11:26:26;;;;;;;29.73;14.80;;;;;;;-2.27;91.70;102781.84;5046507;28;20524;-72
2021/12/22 11:28:51;;;;;;;32.57;14.63;;;;;;;-2.27;91.55;102770.94;5030970;28;20197;-73
2021/12/22 11:31:16;;;;;;;29.93;14.70;;;;;;;-2.18;91.26;102775.25;5031022;28;20206;-72